sensor_id;sensor_type;location;lat;lon;timestamp;P1;durP1;ratioP1;P2;durP2;ratioP2
18249;SDS011;27980;52.126;5.572;2023-03-16T00:02:01;5.70;;;4.25;;
18249;SDS011;27980;52.126;5.572;2023-03-16T00:04:30;4.63;;;4.03;;
18249;SDS011;27980;52.126;5.572;2023-03-16T00:06:56;6.10;;;4.43;;
18249;SDS011;27980;52.126;5.572;2023-03-16T00:09:22;6.82;;;4.30;;
18249;SDS011;27980;52.126;5.572;2023-03-16T00:11:54;4.65;;;3.75;;
18249;SDS011;27980;52.126;5.572;2023-03-16T00:14:21;7.00;;;4.30;;
18249;SDS011;27980;52.126;5.572;2023-03-16T00:16:49;6.15;;;4.50;;
18249;SDS011;27980;52.126;5.572;2023-03-16T00:19:18;6.97;;;4.70;;
18249;SDS011;27980;52.126;5.572;2023-03-16T00:21:46;6.05;;;4.78;;
18249;SDS011;27980;52.126;5.572;2023-03-16T00:24:13;6.13;;;4.35;;
18249;SDS011;27980;52.126;5.572;2023-03-16T00:26:42;7.55;;;4.57;;
18249;SDS011;27980;52.126;5.572;2023-03-16T00:29:08;6.32;;;4.57;;
18249;SDS011;27980;52.126;5.572;2023-03-16T00:31:35;6.63;;;5.28;;
18249;SDS011;27980;52.126;5.572;2023-03-16T00:34:03;7.40;;;5.25;;
18249;SDS011;27980;52.126;5.572;2023-03-16T00:36:31;5.78;;;4.75;;
18249;SDS011;27980;52.126;5.572;2023-03-16T00:38:58;7.10;;;5.00;;
18249;SDS011;27980;52.126;5.572;2023-03-16T00:41:24;6.43;;;4.78;;
18249;SDS011;27980;52.126;5.572;2023-03-16T00:43:51;5.45;;;4.43;;
18249;SDS011;27980;52.126;5.572;2023-03-16T00:46:17;6.25;;;4.70;;
18249;SDS011;27980;52.126;5.572;2023-03-16T00:48:50;9.20;;;5.72;;
18249;SDS011;27980;52.126;5.572;2023-03-16T00:51:18;6.55;;;5.05;;
18249;SDS011;27980;52.126;5.572;2023-03-16T00:53:48;7.25;;;4.93;;
18249;SDS011;27980;52.126;5.572;2023-03-16T00:56:15;5.15;;;4.68;;
18249;SDS011;27980;52.126;5.572;2023-03-16T00:58:41;5.72;;;4.68;;
18249;SDS011;27980;52.126;5.572;2023-03-16T01:01:11;9.05;;;5.57;;
18249;SDS011;27980;52.126;5.572;2023-03-16T01:03:42;7.82;;;5.43;;
18249;SDS011;27980;52.126;5.572;2023-03-16T01:06:09;5.88;;;5.10;;
18249;SDS011;27980;52.126;5.572;2023-03-16T01:08:39;5.45;;;4.82;;
18249;SDS011;27980;52.126;5.572;2023-03-16T01:11:07;9.27;;;5.15;;
18249;SDS011;27980;52.126;5.572;2023-03-16T01:13:34;7.90;;;5.25;;
18249;SDS011;27980;52.126;5.572;2023-03-16T01:16:01;7.38;;;5.28;;
18249;SDS011;27980;52.126;5.572;2023-03-16T01:18:28;8.23;;;4.88;;
18249;SDS011;27980;52.126;5.572;2023-03-16T01:20:54;6.07;;;5.28;;
18249;SDS011;27980;52.126;5.572;2023-03-16T01:23:20;7.22;;;5.28;;
18249;SDS011;27980;52.126;5.572;2023-03-16T01:25:48;9.10;;;5.38;;
18249;SDS011;27980;52.126;5.572;2023-03-16T01:28:18;8.13;;;5.60;;
18249;SDS011;27980;52.126;5.572;2023-03-16T01:30:45;7.88;;;5.78;;
18249;SDS011;27980;52.126;5.572;2023-03-16T01:33:11;8.45;;;5.47;;
18249;SDS011;27980;52.126;5.572;2023-03-16T01:35:37;6.82;;;5.63;;
18249;SDS011;27980;52.126;5.572;2023-03-16T01:38:04;6.72;;;5.55;;
18249;SDS011;27980;52.126;5.572;2023-03-16T01:40:30;7.10;;;5.82;;
18249;SDS011;27980;52.126;5.572;2023-03-16T01:43:00;7.57;;;5.60;;
18249;SDS011;27980;52.126;5.572;2023-03-16T01:48:12;7.80;;;5.70;;
18249;SDS011;27980;52.126;5.572;2023-03-16T01:50:39;5.80;;;5.30;;
18249;SDS011;27980;52.126;5.572;2023-03-16T01:53:06;7.07;;;5.78;;
18249;SDS011;27980;52.126;5.572;2023-03-16T01:55:32;8.38;;;5.88;;
18249;SDS011;27980;52.126;5.572;2023-03-16T01:58:00;7.20;;;5.50;;
18249;SDS011;27980;52.126;5.572;2023-03-16T02:00:27;6.45;;;5.35;;
18249;SDS011;27980;52.126;5.572;2023-03-16T02:02:57;6.50;;;5.57;;
18249;SDS011;27980;52.126;5.572;2023-03-16T02:05:27;7.75;;;6.00;;
18249;SDS011;27980;52.126;5.572;2023-03-16T02:07:54;7.88;;;5.97;;
18249;SDS011;27980;52.126;5.572;2023-03-16T02:10:23;9.35;;;5.78;;
18249;SDS011;27980;52.126;5.572;2023-03-16T02:12:50;6.53;;;5.32;;
18249;SDS011;27980;52.126;5.572;2023-03-16T02:15:18;9.55;;;6.13;;
18249;SDS011;27980;52.126;5.572;2023-03-16T02:17:45;7.55;;;5.80;;
18249;SDS011;27980;52.126;5.572;2023-03-16T02:20:17;6.45;;;5.60;;
18249;SDS011;27980;52.126;5.572;2023-03-16T02:22:48;7.47;;;5.97;;
18249;SDS011;27980;52.126;5.572;2023-03-16T02:25:18;6.93;;;5.55;;
18249;SDS011;27980;52.126;5.572;2023-03-16T02:27:47;8.45;;;5.60;;
18249;SDS011;27980;52.126;5.572;2023-03-16T02:30:18;7.97;;;5.55;;
18249;SDS011;27980;52.126;5.572;2023-03-16T02:32:45;10.43;;;5.85;;
18249;SDS011;27980;52.126;5.572;2023-03-16T02:35:15;7.65;;;5.85;;
18249;SDS011;27980;52.126;5.572;2023-03-16T02:37:42;8.57;;;5.47;;
18249;SDS011;27980;52.126;5.572;2023-03-16T02:40:16;7.38;;;5.00;;
18249;SDS011;27980;52.126;5.572;2023-03-16T02:42:44;6.82;;;5.50;;
18249;SDS011;27980;52.126;5.572;2023-03-16T02:45:12;7.28;;;5.60;;
18249;SDS011;27980;52.126;5.572;2023-03-16T02:47:40;5.95;;;4.93;;
18249;SDS011;27980;52.126;5.572;2023-03-16T02:50:08;7.97;;;4.72;;
18249;SDS011;27980;52.126;5.572;2023-03-16T02:52:35;7.00;;;5.32;;
18249;SDS011;27980;52.126;5.572;2023-03-16T02:55:02;7.20;;;5.22;;
18249;SDS011;27980;52.126;5.572;2023-03-16T02:57:28;7.30;;;5.40;;
18249;SDS011;27980;52.126;5.572;2023-03-16T02:59:55;8.35;;;5.45;;
18249;SDS011;27980;52.126;5.572;2023-03-16T03:02:22;7.18;;;6.07;;
18249;SDS011;27980;52.126;5.572;2023-03-16T03:04:52;6.43;;;5.40;;
18249;SDS011;27980;52.126;5.572;2023-03-16T03:07:19;7.22;;;4.97;;
18249;SDS011;27980;52.126;5.572;2023-03-16T03:09:47;6.70;;;5.38;;
18249;SDS011;27980;52.126;5.572;2023-03-16T03:12:13;7.55;;;5.45;;
18249;SDS011;27980;52.126;5.572;2023-03-16T03:14:40;10.18;;;5.72;;
18249;SDS011;27980;52.126;5.572;2023-03-16T03:17:06;7.13;;;5.22;;
18249;SDS011;27980;52.126;5.572;2023-03-16T03:19:34;7.65;;;5.68;;
18249;SDS011;27980;52.126;5.572;2023-03-16T03:22:04;7.13;;;5.25;;
18249;SDS011;27980;52.126;5.572;2023-03-16T03:24:31;6.32;;;5.50;;
18249;SDS011;27980;52.126;5.572;2023-03-16T03:26:58;9.27;;;5.70;;
18249;SDS011;27980;52.126;5.572;2023-03-16T03:29:28;6.03;;;5.38;;
18249;SDS011;27980;52.126;5.572;2023-03-16T03:31:58;7.93;;;5.80;;
18249;SDS011;27980;52.126;5.572;2023-03-16T03:34:25;10.48;;;6.20;;
18249;SDS011;27980;52.126;5.572;2023-03-16T03:36:52;6.70;;;5.57;;
18249;SDS011;27980;52.126;5.572;2023-03-16T03:39:20;6.32;;;5.55;;
18249;SDS011;27980;52.126;5.572;2023-03-16T03:41:46;6.35;;;5.72;;
18249;SDS011;27980;52.126;5.572;2023-03-16T03:44:12;10.27;;;5.97;;
18249;SDS011;27980;52.126;5.572;2023-03-16T03:46:39;8.13;;;6.63;;
18249;SDS011;27980;52.126;5.572;2023-03-16T03:49:05;6.50;;;5.55;;
18249;SDS011;27980;52.126;5.572;2023-03-16T03:51:34;8.00;;;6.03;;
18249;SDS011;27980;52.126;5.572;2023-03-16T03:54:00;7.05;;;5.90;;
18249;SDS011;27980;52.126;5.572;2023-03-16T03:56:28;7.10;;;5.95;;
18249;SDS011;27980;52.126;5.572;2023-03-16T03:58:55;6.57;;;5.93;;
18249;SDS011;27980;52.126;5.572;2023-03-16T04:01:22;7.28;;;6.10;;
18249;SDS011;27980;52.126;5.572;2023-03-16T04:03:51;8.88;;;6.60;;
18249;SDS011;27980;52.126;5.572;2023-03-16T04:06:17;7.93;;;5.78;;
18249;SDS011;27980;52.126;5.572;2023-03-16T04:08:43;7.03;;;6.30;;
18249;SDS011;27980;52.126;5.572;2023-03-16T04:11:10;7.07;;;5.78;;
18249;SDS011;27980;52.126;5.572;2023-03-16T04:13:38;9.32;;;6.35;;
18249;SDS011;27980;52.126;5.572;2023-03-16T04:16:05;9.45;;;6.05;;
18249;SDS011;27980;52.126;5.572;2023-03-16T04:18:31;7.13;;;6.00;;
18249;SDS011;27980;52.126;5.572;2023-03-16T04:21:02;8.93;;;5.38;;
18249;SDS011;27980;52.126;5.572;2023-03-16T04:23:29;8.20;;;6.65;;
18249;SDS011;27980;52.126;5.572;2023-03-16T04:25:57;9.07;;;6.25;;
18249;SDS011;27980;52.126;5.572;2023-03-16T04:28:23;7.32;;;6.22;;
18249;SDS011;27980;52.126;5.572;2023-03-16T04:30:52;10.82;;;6.25;;
18249;SDS011;27980;52.126;5.572;2023-03-16T04:33:19;8.88;;;6.60;;
18249;SDS011;27980;52.126;5.572;2023-03-16T04:35:48;8.35;;;6.05;;
18249;SDS011;27980;52.126;5.572;2023-03-16T04:38:16;8.05;;;5.93;;
18249;SDS011;27980;52.126;5.572;2023-03-16T04:40:42;9.85;;;6.30;;
18249;SDS011;27980;52.126;5.572;2023-03-16T04:43:09;10.15;;;6.38;;
18249;SDS011;27980;52.126;5.572;2023-03-16T04:45:37;7.68;;;6.05;;
18249;SDS011;27980;52.126;5.572;2023-03-16T04:48:06;10.48;;;5.78;;
18249;SDS011;27980;52.126;5.572;2023-03-16T04:50:33;8.32;;;5.97;;
18249;SDS011;27980;52.126;5.572;2023-03-16T04:53:00;8.50;;;6.15;;
18249;SDS011;27980;52.126;5.572;2023-03-16T04:55:30;7.85;;;5.75;;
18249;SDS011;27980;52.126;5.572;2023-03-16T04:57:56;8.35;;;6.20;;
18249;SDS011;27980;52.126;5.572;2023-03-16T05:00:25;9.00;;;5.88;;
18249;SDS011;27980;52.126;5.572;2023-03-16T05:02:52;9.05;;;6.38;;
18249;SDS011;27980;52.126;5.572;2023-03-16T05:05:20;10.45;;;6.13;;
18249;SDS011;27980;52.126;5.572;2023-03-16T05:07:48;7.22;;;5.88;;
18249;SDS011;27980;52.126;5.572;2023-03-16T05:10:15;7.78;;;5.63;;
18249;SDS011;27980;52.126;5.572;2023-03-16T05:12:42;8.75;;;6.05;;
18249;SDS011;27980;52.126;5.572;2023-03-16T05:15:09;7.63;;;5.60;;
18249;SDS011;27980;52.126;5.572;2023-03-16T05:17:36;9.50;;;5.75;;
18249;SDS011;27980;52.126;5.572;2023-03-16T05:20:04;8.02;;;5.88;;
18249;SDS011;27980;52.126;5.572;2023-03-16T05:22:33;9.13;;;6.18;;
18249;SDS011;27980;52.126;5.572;2023-03-16T05:25:00;9.02;;;5.32;;
18249;SDS011;27980;52.126;5.572;2023-03-16T05:27:29;6.45;;;5.47;;
18249;SDS011;27980;52.126;5.572;2023-03-16T05:29:55;7.30;;;5.47;;
18249;SDS011;27980;52.126;5.572;2023-03-16T05:32:21;10.23;;;5.90;;
18249;SDS011;27980;52.126;5.572;2023-03-16T05:34:48;8.93;;;5.65;;
18249;SDS011;27980;52.126;5.572;2023-03-16T05:37:17;8.48;;;5.50;;
18249;SDS011;27980;52.126;5.572;2023-03-16T05:39:47;8.15;;;5.45;;
18249;SDS011;27980;52.126;5.572;2023-03-16T05:42:13;7.80;;;5.13;;
18249;SDS011;27980;52.126;5.572;2023-03-16T05:44:40;6.70;;;5.65;;
18249;SDS011;27980;52.126;5.572;2023-03-16T05:47:06;7.20;;;5.57;;
18249;SDS011;27980;52.126;5.572;2023-03-16T05:49:32;9.45;;;5.25;;
18249;SDS011;27980;52.126;5.572;2023-03-16T05:52:02;8.05;;;4.78;;
18249;SDS011;27980;52.126;5.572;2023-03-16T05:54:28;7.80;;;5.63;;
18249;SDS011;27980;52.126;5.572;2023-03-16T05:56:56;7.75;;;5.38;;
18249;SDS011;27980;52.126;5.572;2023-03-16T05:59:23;8.15;;;5.45;;
18249;SDS011;27980;52.126;5.572;2023-03-16T06:01:50;7.75;;;5.00;;
18249;SDS011;27980;52.126;5.572;2023-03-16T06:04:16;6.78;;;5.40;;
18249;SDS011;27980;52.126;5.572;2023-03-16T06:06:43;7.28;;;5.15;;
18249;SDS011;27980;52.126;5.572;2023-03-16T06:09:09;8.30;;;5.60;;
18249;SDS011;27980;52.126;5.572;2023-03-16T06:11:36;9.07;;;5.30;;
18249;SDS011;27980;52.126;5.572;2023-03-16T06:14:04;6.38;;;5.25;;
18249;SDS011;27980;52.126;5.572;2023-03-16T06:16:30;6.00;;;5.38;;
18249;SDS011;27980;52.126;5.572;2023-03-16T06:18:57;6.10;;;5.50;;
18249;SDS011;27980;52.126;5.572;2023-03-16T06:21:23;8.02;;;5.70;;
18249;SDS011;27980;52.126;5.572;2023-03-16T06:23:49;7.53;;;5.18;;
18249;SDS011;27980;52.126;5.572;2023-03-16T06:26:16;8.43;;;5.30;;
18249;SDS011;27980;52.126;5.572;2023-03-16T06:28:42;6.50;;;5.25;;
18249;SDS011;27980;52.126;5.572;2023-03-16T06:31:10;7.00;;;5.07;;
18249;SDS011;27980;52.126;5.572;2023-03-16T06:33:38;6.55;;;4.47;;
18249;SDS011;27980;52.126;5.572;2023-03-16T06:36:04;7.10;;;5.47;;
18249;SDS011;27980;52.126;5.572;2023-03-16T06:38:31;8.25;;;5.55;;
18249;SDS011;27980;52.126;5.572;2023-03-16T06:40:57;8.48;;;5.32;;
18249;SDS011;27980;52.126;5.572;2023-03-16T06:43:24;8.20;;;4.72;;
18249;SDS011;27980;52.126;5.572;2023-03-16T06:45:50;6.70;;;4.75;;
18249;SDS011;27980;52.126;5.572;2023-03-16T06:48:18;8.55;;;5.38;;
18249;SDS011;27980;52.126;5.572;2023-03-16T06:50:45;8.15;;;5.45;;
18249;SDS011;27980;52.126;5.572;2023-03-16T06:53:11;7.18;;;5.05;;
18249;SDS011;27980;52.126;5.572;2023-03-16T06:55:38;7.05;;;5.15;;
18249;SDS011;27980;52.126;5.572;2023-03-16T06:58:05;10.38;;;5.28;;
18249;SDS011;27980;52.126;5.572;2023-03-16T07:00:32;8.25;;;5.63;;
18249;SDS011;27980;52.126;5.572;2023-03-16T07:03:00;7.07;;;4.82;;
18249;SDS011;27980;52.126;5.572;2023-03-16T07:05:28;7.90;;;5.60;;
18249;SDS011;27980;52.126;5.572;2023-03-16T07:07:55;8.75;;;5.75;;
18249;SDS011;27980;52.126;5.572;2023-03-16T07:10:22;8.15;;;5.53;;
18249;SDS011;27980;52.126;5.572;2023-03-16T07:12:49;8.05;;;4.85;;
18249;SDS011;27980;52.126;5.572;2023-03-16T07:15:16;6.60;;;4.78;;
18249;SDS011;27980;52.126;5.572;2023-03-16T07:17:43;7.80;;;4.70;;
18249;SDS011;27980;52.126;5.572;2023-03-16T07:20:09;7.35;;;4.30;;
18249;SDS011;27980;52.126;5.572;2023-03-16T07:22:38;7.32;;;4.55;;
18249;SDS011;27980;52.126;5.572;2023-03-16T07:25:06;16.17;;;5.80;;
18249;SDS011;27980;52.126;5.572;2023-03-16T07:27:33;6.60;;;5.28;;
18249;SDS011;27980;52.126;5.572;2023-03-16T07:29:59;10.77;;;5.22;;
18249;SDS011;27980;52.126;5.572;2023-03-16T07:32:26;6.82;;;4.85;;
18249;SDS011;27980;52.126;5.572;2023-03-16T07:34:52;7.05;;;4.55;;
18249;SDS011;27980;52.126;5.572;2023-03-16T07:37:19;5.57;;;4.78;;
18249;SDS011;27980;52.126;5.572;2023-03-16T07:39:47;6.40;;;4.70;;
18249;SDS011;27980;52.126;5.572;2023-03-16T07:42:13;7.18;;;4.95;;
18249;SDS011;27980;52.126;5.572;2023-03-16T07:44:40;6.95;;;4.63;;
18249;SDS011;27980;52.126;5.572;2023-03-16T07:47:07;6.43;;;4.88;;
18249;SDS011;27980;52.126;5.572;2023-03-16T07:49:35;7.32;;;4.57;;
18249;SDS011;27980;52.126;5.572;2023-03-16T07:52:02;6.63;;;5.00;;
18249;SDS011;27980;52.126;5.572;2023-03-16T07:54:28;7.45;;;4.88;;
18249;SDS011;27980;52.126;5.572;2023-03-16T07:56:58;5.80;;;4.75;;
18249;SDS011;27980;52.126;5.572;2023-03-16T07:59:25;6.38;;;4.32;;
18249;SDS011;27980;52.126;5.572;2023-03-16T08:01:51;5.57;;;4.68;;
18249;SDS011;27980;52.126;5.572;2023-03-16T08:04:18;7.05;;;4.53;;
18249;SDS011;27980;52.126;5.572;2023-03-16T08:06:46;7.03;;;4.72;;
18249;SDS011;27980;52.126;5.572;2023-03-16T08:09:12;7.30;;;5.07;;
18249;SDS011;27980;52.126;5.572;2023-03-16T08:11:39;8.18;;;5.00;;
18249;SDS011;27980;52.126;5.572;2023-03-16T08:14:07;6.55;;;5.18;;
18249;SDS011;27980;52.126;5.572;2023-03-16T08:16:34;8.30;;;5.10;;
18249;SDS011;27980;52.126;5.572;2023-03-16T08:19:00;9.25;;;5.72;;
18249;SDS011;27980;52.126;5.572;2023-03-16T08:21:28;7.07;;;5.05;;
18249;SDS011;27980;52.126;5.572;2023-03-16T08:23:55;6.97;;;4.88;;
18249;SDS011;27980;52.126;5.572;2023-03-16T08:26:21;7.13;;;5.60;;
18249;SDS011;27980;52.126;5.572;2023-03-16T08:28:49;7.82;;;5.10;;
18249;SDS011;27980;52.126;5.572;2023-03-16T08:31:18;7.75;;;4.95;;
18249;SDS011;27980;52.126;5.572;2023-03-16T08:33:46;7.13;;;5.10;;
18249;SDS011;27980;52.126;5.572;2023-03-16T08:36:13;6.20;;;4.93;;
18249;SDS011;27980;52.126;5.572;2023-03-16T08:38:40;6.22;;;5.22;;
18249;SDS011;27980;52.126;5.572;2023-03-16T08:41:07;5.43;;;4.32;;
18249;SDS011;27980;52.126;5.572;2023-03-16T08:43:34;7.43;;;4.90;;
18249;SDS011;27980;52.126;5.572;2023-03-16T08:46:01;8.13;;;4.85;;
18249;SDS011;27980;52.126;5.572;2023-03-16T08:48:30;7.60;;;5.15;;
18249;SDS011;27980;52.126;5.572;2023-03-16T08:51:00;8.45;;;5.22;;
18249;SDS011;27980;52.126;5.572;2023-03-16T08:53:26;6.70;;;4.75;;
18249;SDS011;27980;52.126;5.572;2023-03-16T08:55:59;6.30;;;4.25;;
18249;SDS011;27980;52.126;5.572;2023-03-16T08:58:26;5.57;;;4.45;;
18249;SDS011;27980;52.126;5.572;2023-03-16T09:00:54;9.30;;;4.78;;
18249;SDS011;27980;52.126;5.572;2023-03-16T09:03:20;6.80;;;4.20;;
18249;SDS011;27980;52.126;5.572;2023-03-16T09:05:49;7.60;;;4.25;;
18249;SDS011;27980;52.126;5.572;2023-03-16T09:08:15;5.10;;;4.38;;
18249;SDS011;27980;52.126;5.572;2023-03-16T09:10:42;7.00;;;4.22;;
18249;SDS011;27980;52.126;5.572;2023-03-16T09:13:08;7.20;;;4.18;;
18249;SDS011;27980;52.126;5.572;2023-03-16T09:15:35;6.53;;;4.45;;
18249;SDS011;27980;52.126;5.572;2023-03-16T09:18:03;7.63;;;4.50;;
18249;SDS011;27980;52.126;5.572;2023-03-16T09:20:30;4.95;;;3.80;;
18249;SDS011;27980;52.126;5.572;2023-03-16T09:22:58;6.28;;;4.65;;
18249;SDS011;27980;52.126;5.572;2023-03-16T09:25:25;8.10;;;4.75;;
18249;SDS011;27980;52.126;5.572;2023-03-16T09:27:51;7.93;;;4.20;;
18249;SDS011;27980;52.126;5.572;2023-03-16T09:30:18;4.80;;;4.13;;
18249;SDS011;27980;52.126;5.572;2023-03-16T09:32:44;6.20;;;4.65;;
18249;SDS011;27980;52.126;5.572;2023-03-16T09:35:12;5.90;;;4.28;;
18249;SDS011;27980;52.126;5.572;2023-03-16T09:37:39;7.10;;;4.80;;
18249;SDS011;27980;52.126;5.572;2023-03-16T09:40:11;6.35;;;4.55;;
18249;SDS011;27980;52.126;5.572;2023-03-16T09:42:40;8.80;;;5.00;;
18249;SDS011;27980;52.126;5.572;2023-03-16T09:45:13;4.97;;;4.05;;
18249;SDS011;27980;52.126;5.572;2023-03-16T09:47:41;7.10;;;5.03;;
18249;SDS011;27980;52.126;5.572;2023-03-16T09:50:12;6.72;;;4.63;;
18249;SDS011;27980;52.126;5.572;2023-03-16T09:52:42;5.97;;;4.45;;
18249;SDS011;27980;52.126;5.572;2023-03-16T09:55:18;5.57;;;4.32;;
18249;SDS011;27980;52.126;5.572;2023-03-16T09:57:47;7.30;;;4.57;;
18249;SDS011;27980;52.126;5.572;2023-03-16T10:00:18;5.53;;;4.25;;
18249;SDS011;27980;52.126;5.572;2023-03-16T10:02:48;6.18;;;4.47;;
18249;SDS011;27980;52.126;5.572;2023-03-16T10:05:16;4.28;;;3.85;;
18249;SDS011;27980;52.126;5.572;2023-03-16T10:07:48;4.40;;;4.00;;
18249;SDS011;27980;52.126;5.572;2023-03-16T10:10:20;7.05;;;3.83;;
18249;SDS011;27980;52.126;5.572;2023-03-16T10:12:49;7.43;;;4.22;;
18249;SDS011;27980;52.126;5.572;2023-03-16T10:15:17;7.93;;;3.92;;
18249;SDS011;27980;52.126;5.572;2023-03-16T10:17:45;4.25;;;3.85;;
18249;SDS011;27980;52.126;5.572;2023-03-16T10:20:15;4.60;;;3.78;;
18249;SDS011;27980;52.126;5.572;2023-03-16T10:22:42;6.28;;;3.70;;
18249;SDS011;27980;52.126;5.572;2023-03-16T10:25:11;5.30;;;3.55;;
18249;SDS011;27980;52.126;5.572;2023-03-16T10:27:42;4.88;;;3.47;;
18249;SDS011;27980;52.126;5.572;2023-03-16T10:30:14;4.43;;;3.05;;
18249;SDS011;27980;52.126;5.572;2023-03-16T10:32:43;5.82;;;3.65;;
18249;SDS011;27980;52.126;5.572;2023-03-16T10:35:13;5.45;;;3.67;;
18249;SDS011;27980;52.126;5.572;2023-03-16T10:37:42;4.57;;;3.33;;
18249;SDS011;27980;52.126;5.572;2023-03-16T10:40:10;3.55;;;2.85;;
18249;SDS011;27980;52.126;5.572;2023-03-16T10:42:37;5.47;;;3.10;;
18249;SDS011;27980;52.126;5.572;2023-03-16T10:45:10;3.33;;;2.72;;
18249;SDS011;27980;52.126;5.572;2023-03-16T10:47:45;3.75;;;3.20;;
18249;SDS011;27980;52.126;5.572;2023-03-16T10:50:11;3.35;;;2.63;;
18249;SDS011;27980;52.126;5.572;2023-03-16T10:52:39;4.47;;;2.80;;
18249;SDS011;27980;52.126;5.572;2023-03-16T10:55:08;4.35;;;2.80;;
18249;SDS011;27980;52.126;5.572;2023-03-16T10:57:36;5.53;;;3.33;;
18249;SDS011;27980;52.126;5.572;2023-03-16T11:00:10;3.88;;;2.67;;
18249;SDS011;27980;52.126;5.572;2023-03-16T11:02:39;5.32;;;2.90;;
18249;SDS011;27980;52.126;5.572;2023-03-16T11:05:12;4.72;;;2.90;;
18249;SDS011;27980;52.126;5.572;2023-03-16T11:07:45;3.40;;;3.10;;
18249;SDS011;27980;52.126;5.572;2023-03-16T11:10:18;3.50;;;2.85;;
18249;SDS011;27980;52.126;5.572;2023-03-16T11:12:49;4.00;;;3.13;;
18249;SDS011;27980;52.126;5.572;2023-03-16T11:15:17;4.43;;;3.05;;
18249;SDS011;27980;52.126;5.572;2023-03-16T11:17:44;3.83;;;2.97;;
18249;SDS011;27980;52.126;5.572;2023-03-16T11:20:13;3.03;;;2.70;;
18249;SDS011;27980;52.126;5.572;2023-03-16T11:22:42;6.53;;;3.25;;
18249;SDS011;27980;52.126;5.572;2023-03-16T11:25:11;4.50;;;3.55;;
18249;SDS011;27980;52.126;5.572;2023-03-16T11:27:41;5.72;;;3.25;;
18249;SDS011;27980;52.126;5.572;2023-03-16T11:30:10;5.60;;;3.38;;
18249;SDS011;27980;52.126;5.572;2023-03-16T11:32:41;5.68;;;3.25;;
18249;SDS011;27980;52.126;5.572;2023-03-16T11:35:11;4.68;;;3.45;;
18249;SDS011;27980;52.126;5.572;2023-03-16T11:37:41;5.05;;;3.25;;
18249;SDS011;27980;52.126;5.572;2023-03-16T11:40:16;4.03;;;3.33;;
18249;SDS011;27980;52.126;5.572;2023-03-16T11:42:46;3.75;;;3.08;;
18249;SDS011;27980;52.126;5.572;2023-03-16T11:45:18;5.75;;;3.50;;
18249;SDS011;27980;52.126;5.572;2023-03-16T11:48:04;4.40;;;3.10;;
18249;SDS011;27980;52.126;5.572;2023-03-16T11:50:34;3.88;;;3.30;;
18249;SDS011;27980;52.126;5.572;2023-03-16T11:53:04;4.95;;;3.13;;
18249;SDS011;27980;52.126;5.572;2023-03-16T11:55:38;4.43;;;3.38;;
18249;SDS011;27980;52.126;5.572;2023-03-16T11:58:12;4.10;;;3.45;;
18249;SDS011;27980;52.126;5.572;2023-03-16T12:00:43;4.05;;;3.28;;
18249;SDS011;27980;52.126;5.572;2023-03-16T12:03:21;4.95;;;3.50;;
18249;SDS011;27980;52.126;5.572;2023-03-16T12:05:55;4.32;;;3.00;;
18249;SDS011;27980;52.126;5.572;2023-03-16T12:08:27;4.60;;;3.40;;
18249;SDS011;27980;52.126;5.572;2023-03-16T12:10:56;5.80;;;3.42;;
18249;SDS011;27980;52.126;5.572;2023-03-16T12:13:36;6.05;;;2.83;;
18249;SDS011;27980;52.126;5.572;2023-03-16T12:16:07;5.82;;;2.97;;
18249;SDS011;27980;52.126;5.572;2023-03-16T12:18:41;5.93;;;3.03;;
18249;SDS011;27980;52.126;5.572;2023-03-16T12:21:10;4.50;;;3.00;;
18249;SDS011;27980;52.126;5.572;2023-03-16T12:23:39;5.45;;;3.00;;
18249;SDS011;27980;52.126;5.572;2023-03-16T12:26:06;4.03;;;3.03;;
18249;SDS011;27980;52.126;5.572;2023-03-16T12:28:33;6.35;;;3.20;;
18249;SDS011;27980;52.126;5.572;2023-03-16T12:31:03;5.43;;;3.08;;
18249;SDS011;27980;52.126;5.572;2023-03-16T12:33:42;4.88;;;2.70;;
18249;SDS011;27980;52.126;5.572;2023-03-16T12:36:20;3.17;;;2.88;;
18249;SDS011;27980;52.126;5.572;2023-03-16T12:38:50;4.55;;;3.08;;
18249;SDS011;27980;52.126;5.572;2023-03-16T12:41:21;4.10;;;3.00;;
18249;SDS011;27980;52.126;5.572;2023-03-16T12:43:55;5.50;;;3.10;;
18249;SDS011;27980;52.126;5.572;2023-03-16T12:46:27;4.22;;;2.95;;
18249;SDS011;27980;52.126;5.572;2023-03-16T12:49:00;5.63;;;3.13;;
18249;SDS011;27980;52.126;5.572;2023-03-16T12:51:31;4.85;;;3.00;;
18249;SDS011;27980;52.126;5.572;2023-03-16T12:53:58;3.67;;;2.53;;
18249;SDS011;27980;52.126;5.572;2023-03-16T12:56:26;4.20;;;2.67;;
18249;SDS011;27980;52.126;5.572;2023-03-16T12:58:54;7.10;;;2.90;;
18249;SDS011;27980;52.126;5.572;2023-03-16T13:01:24;7.82;;;3.20;;
18249;SDS011;27980;52.126;5.572;2023-03-16T13:03:58;5.70;;;2.95;;
18249;SDS011;27980;52.126;5.572;2023-03-16T13:06:29;4.00;;;2.60;;
18249;SDS011;27980;52.126;5.572;2023-03-16T13:08:57;3.85;;;2.80;;
18249;SDS011;27980;52.126;5.572;2023-03-16T13:11:25;3.15;;;2.35;;
18249;SDS011;27980;52.126;5.572;2023-03-16T13:14:06;4.45;;;2.72;;
18249;SDS011;27980;52.126;5.572;2023-03-16T13:16:37;3.42;;;2.97;;
18249;SDS011;27980;52.126;5.572;2023-03-16T13:21:47;5.68;;;2.97;;
18249;SDS011;27980;52.126;5.572;2023-03-16T13:24:25;4.85;;;2.75;;
18249;SDS011;27980;52.126;5.572;2023-03-16T13:26:53;5.25;;;2.90;;
18249;SDS011;27980;52.126;5.572;2023-03-16T13:29:24;3.85;;;3.13;;
18249;SDS011;27980;52.126;5.572;2023-03-16T13:31:51;5.38;;;2.80;;
18249;SDS011;27980;52.126;5.572;2023-03-16T13:34:19;4.63;;;3.13;;
18249;SDS011;27980;52.126;5.572;2023-03-16T13:36:47;4.22;;;2.95;;
18249;SDS011;27980;52.126;5.572;2023-03-16T13:39:17;5.78;;;2.97;;
18249;SDS011;27980;52.126;5.572;2023-03-16T13:41:53;4.88;;;2.70;;
18249;SDS011;27980;52.126;5.572;2023-03-16T13:44:20;5.95;;;2.92;;
18249;SDS011;27980;52.126;5.572;2023-03-16T13:46:48;5.45;;;3.03;;
18249;SDS011;27980;52.126;5.572;2023-03-16T13:49:14;3.65;;;2.72;;
18249;SDS011;27980;52.126;5.572;2023-03-16T13:51:42;5.47;;;2.70;;
18249;SDS011;27980;52.126;5.572;2023-03-16T13:54:15;6.72;;;2.83;;
18249;SDS011;27980;52.126;5.572;2023-03-16T13:56:43;4.82;;;2.88;;
18249;SDS011;27980;52.126;5.572;2023-03-16T13:59:10;4.20;;;3.00;;
18249;SDS011;27980;52.126;5.572;2023-03-16T14:01:37;5.88;;;2.80;;
18249;SDS011;27980;52.126;5.572;2023-03-16T14:04:08;3.90;;;2.40;;
18249;SDS011;27980;52.126;5.572;2023-03-16T14:06:39;3.83;;;2.70;;
18249;SDS011;27980;52.126;5.572;2023-03-16T14:09:10;6.07;;;2.67;;
18249;SDS011;27980;52.126;5.572;2023-03-16T14:11:38;3.65;;;2.88;;
18249;SDS011;27980;52.126;5.572;2023-03-16T14:14:12;3.95;;;2.80;;
18249;SDS011;27980;52.126;5.572;2023-03-16T14:16:38;7.72;;;3.17;;
18249;SDS011;27980;52.126;5.572;2023-03-16T14:19:06;7.65;;;3.28;;
18249;SDS011;27980;52.126;5.572;2023-03-16T14:21:33;3.33;;;2.60;;
18249;SDS011;27980;52.126;5.572;2023-03-16T14:24:05;4.85;;;2.60;;
18249;SDS011;27980;52.126;5.572;2023-03-16T14:26:41;4.03;;;2.63;;
18249;SDS011;27980;52.126;5.572;2023-03-16T14:29:12;4.25;;;2.50;;
18249;SDS011;27980;52.126;5.572;2023-03-16T14:31:41;3.25;;;2.50;;
18249;SDS011;27980;52.126;5.572;2023-03-16T14:34:18;4.55;;;2.70;;
18249;SDS011;27980;52.126;5.572;2023-03-16T14:36:45;4.07;;;2.80;;
18249;SDS011;27980;52.126;5.572;2023-03-16T14:39:13;5.40;;;2.40;;
18249;SDS011;27980;52.126;5.572;2023-03-16T14:41:46;3.58;;;2.47;;
18249;SDS011;27980;52.126;5.572;2023-03-16T14:44:18;4.22;;;2.50;;
18249;SDS011;27980;52.126;5.572;2023-03-16T14:46:45;2.28;;;1.88;;
18249;SDS011;27980;52.126;5.572;2023-03-16T14:49:16;3.33;;;1.63;;
18249;SDS011;27980;52.126;5.572;2023-03-16T14:51:44;3.50;;;1.60;;
18249;SDS011;27980;52.126;5.572;2023-03-16T14:54:11;3.13;;;1.63;;
18249;SDS011;27980;52.126;5.572;2023-03-16T14:56:38;4.05;;;1.67;;
18249;SDS011;27980;52.126;5.572;2023-03-16T14:59:07;3.75;;;1.80;;
18249;SDS011;27980;52.126;5.572;2023-03-16T15:01:34;3.35;;;2.03;;